sensor_id;sensor_type;location;lat;lon;timestamp;P1;durP1;ratioP1;P2;durP2;ratioP2
22070;SDS011;11200;51.488;6.668;2022-12-05T00:00:30;27.90;;;18.55;;
22070;SDS011;11200;51.488;6.668;2022-12-05T00:02:57;26.52;;;18.50;;
22070;SDS011;11200;51.488;6.668;2022-12-05T00:05:41;30.38;;;18.70;;
22070;SDS011;11200;51.488;6.668;2022-12-05T00:08:14;30.30;;;20.00;;
22070;SDS011;11200;51.488;6.668;2022-12-05T00:10:45;27.58;;;19.15;;
22070;SDS011;11200;51.488;6.668;2022-12-05T00:13:10;26.15;;;18.50;;
22070;SDS011;11200;51.488;6.668;2022-12-05T00:15:39;26.50;;;18.05;;
22070;SDS011;11200;51.488;6.668;2022-12-05T00:18:05;27.88;;;18.90;;
22070;SDS011;11200;51.488;6.668;2022-12-05T00:20:35;26.98;;;19.10;;
22070;SDS011;11200;51.488;6.668;2022-12-05T00:23:10;27.65;;;19.17;;
22070;SDS011;11200;51.488;6.668;2022-12-05T00:25:37;29.05;;;19.40;;
22070;SDS011;11200;51.488;6.668;2022-12-05T00:28:07;27.80;;;19.27;;
22070;SDS011;11200;51.488;6.668;2022-12-05T00:30:33;25.98;;;18.20;;
22070;SDS011;11200;51.488;6.668;2022-12-05T00:32:58;24.92;;;18.40;;
22070;SDS011;11200;51.488;6.668;2022-12-05T00:35:24;28.13;;;20.38;;
22070;SDS011;11200;51.488;6.668;2022-12-05T00:37:49;25.23;;;18.55;;
22070;SDS011;11200;51.488;6.668;2022-12-05T00:40:15;27.92;;;18.98;;
22070;SDS011;11200;51.488;6.668;2022-12-05T00:42:41;27.20;;;19.15;;
22070;SDS011;11200;51.488;6.668;2022-12-05T00:45:12;25.83;;;18.02;;
22070;SDS011;11200;51.488;6.668;2022-12-05T00:47:37;26.80;;;19.33;;
22070;SDS011;11200;51.488;6.668;2022-12-05T00:50:03;24.52;;;18.30;;
22070;SDS011;11200;51.488;6.668;2022-12-05T00:52:29;26.55;;;19.02;;
22070;SDS011;11200;51.488;6.668;2022-12-05T00:54:55;27.42;;;19.33;;
22070;SDS011;11200;51.488;6.668;2022-12-05T00:57:20;27.33;;;18.58;;
22070;SDS011;11200;51.488;6.668;2022-12-05T00:59:47;27.02;;;18.23;;
22070;SDS011;11200;51.488;6.668;2022-12-05T01:02:12;28.00;;;19.35;;
22070;SDS011;11200;51.488;6.668;2022-12-05T01:04:38;28.05;;;19.38;;
22070;SDS011;11200;51.488;6.668;2022-12-05T01:07:05;26.27;;;18.33;;
22070;SDS011;11200;51.488;6.668;2022-12-05T01:09:41;29.65;;;20.00;;
22070;SDS011;11200;51.488;6.668;2022-12-05T01:12:07;27.33;;;19.13;;
22070;SDS011;11200;51.488;6.668;2022-12-05T01:14:32;26.70;;;18.55;;
22070;SDS011;11200;51.488;6.668;2022-12-05T01:16:59;26.63;;;19.08;;
22070;SDS011;11200;51.488;6.668;2022-12-05T01:19:26;25.70;;;18.75;;
22070;SDS011;11200;51.488;6.668;2022-12-05T01:21:53;27.17;;;18.98;;
22070;SDS011;11200;51.488;6.668;2022-12-05T01:24:20;25.80;;;19.20;;
22070;SDS011;11200;51.488;6.668;2022-12-05T01:26:46;25.55;;;18.23;;
22070;SDS011;11200;51.488;6.668;2022-12-05T01:29:14;26.65;;;19.40;;
22070;SDS011;11200;51.488;6.668;2022-12-05T01:31:47;28.58;;;19.67;;
22070;SDS011;11200;51.488;6.668;2022-12-05T01:34:19;26.65;;;18.75;;
22070;SDS011;11200;51.488;6.668;2022-12-05T01:36:50;28.73;;;19.65;;
22070;SDS011;11200;51.488;6.668;2022-12-05T01:39:23;28.45;;;19.50;;
22070;SDS011;11200;51.488;6.668;2022-12-05T01:41:56;26.80;;;19.10;;
22070;SDS011;11200;51.488;6.668;2022-12-05T01:46:48;25.95;;;19.30;;
22070;SDS011;11200;51.488;6.668;2022-12-05T01:49:16;29.00;;;20.42;;
22070;SDS011;11200;51.488;6.668;2022-12-05T01:51:51;27.50;;;20.08;;
22070;SDS011;11200;51.488;6.668;2022-12-05T01:54:21;29.35;;;20.02;;
22070;SDS011;11200;51.488;6.668;2022-12-05T01:56:57;28.70;;;20.02;;
22070;SDS011;11200;51.488;6.668;2022-12-05T01:59:34;27.73;;;20.00;;
22070;SDS011;11200;51.488;6.668;2022-12-05T02:02:11;26.95;;;19.85;;
22070;SDS011;11200;51.488;6.668;2022-12-05T02:05:19;26.38;;;19.50;;
22070;SDS011;11200;51.488;6.668;2022-12-05T02:07:53;29.02;;;20.30;;
22070;SDS011;11200;51.488;6.668;2022-12-05T02:10:46;29.27;;;19.48;;
22070;SDS011;11200;51.488;6.668;2022-12-05T02:30:15;27.70;;;18.85;;
22070;SDS011;11200;51.488;6.668;2022-12-05T02:36:12;26.67;;;19.55;;
22070;SDS011;11200;51.488;6.668;2022-12-05T02:46:25;27.02;;;19.40;;
22070;SDS011;11200;51.488;6.668;2022-12-05T02:48:55;26.50;;;19.08;;
22070;SDS011;11200;51.488;6.668;2022-12-05T02:51:24;28.33;;;19.52;;
22070;SDS011;11200;51.488;6.668;2022-12-05T02:53:54;24.13;;;18.17;;
22070;SDS011;11200;51.488;6.668;2022-12-05T02:56:24;26.85;;;20.35;;
22070;SDS011;11200;51.488;6.668;2022-12-05T02:58:55;28.98;;;19.40;;
22070;SDS011;11200;51.488;6.668;2022-12-05T03:01:22;25.65;;;19.10;;
22070;SDS011;11200;51.488;6.668;2022-12-05T03:03:51;27.63;;;19.33;;
22070;SDS011;11200;51.488;6.668;2022-12-05T03:06:22;26.17;;;18.33;;
22070;SDS011;11200;51.488;6.668;2022-12-05T03:08:56;26.55;;;18.73;;
22070;SDS011;11200;51.488;6.668;2022-12-05T03:11:48;26.60;;;18.92;;
22070;SDS011;11200;51.488;6.668;2022-12-05T03:14:29;26.35;;;18.65;;
22070;SDS011;11200;51.488;6.668;2022-12-05T03:17:08;25.65;;;18.30;;
22070;SDS011;11200;51.488;6.668;2022-12-05T03:19:52;25.60;;;18.38;;
22070;SDS011;11200;51.488;6.668;2022-12-05T03:23:00;25.95;;;18.35;;
22070;SDS011;11200;51.488;6.668;2022-12-05T03:28:41;25.67;;;18.00;;
22070;SDS011;11200;51.488;6.668;2022-12-05T03:31:29;25.70;;;18.27;;
22070;SDS011;11200;51.488;6.668;2022-12-05T03:34:21;26.17;;;18.30;;
22070;SDS011;11200;51.488;6.668;2022-12-05T03:37:06;24.38;;;17.75;;
22070;SDS011;11200;51.488;6.668;2022-12-05T03:39:48;25.00;;;18.30;;
22070;SDS011;11200;51.488;6.668;2022-12-05T03:42:27;26.52;;;18.77;;
22070;SDS011;11200;51.488;6.668;2022-12-05T03:45:06;24.85;;;17.83;;
22070;SDS011;11200;51.488;6.668;2022-12-05T03:47:52;25.30;;;18.20;;
22070;SDS011;11200;51.488;6.668;2022-12-05T03:50:28;26.00;;;17.67;;
22070;SDS011;11200;51.488;6.668;2022-12-05T03:53:05;24.38;;;18.10;;
22070;SDS011;11200;51.488;6.668;2022-12-05T03:55:41;23.88;;;17.67;;
22070;SDS011;11200;51.488;6.668;2022-12-05T03:58:10;24.55;;;17.58;;
22070;SDS011;11200;51.488;6.668;2022-12-05T04:00:55;23.10;;;16.95;;
22070;SDS011;11200;51.488;6.668;2022-12-05T04:03:42;25.10;;;17.77;;
22070;SDS011;11200;51.488;6.668;2022-12-05T04:06:27;26.70;;;18.58;;
22070;SDS011;11200;51.488;6.668;2022-12-05T04:09:04;26.63;;;18.67;;
22070;SDS011;11200;51.488;6.668;2022-12-05T04:11:35;25.88;;;17.65;;
22070;SDS011;11200;51.488;6.668;2022-12-05T04:14:06;24.55;;;17.83;;
22070;SDS011;11200;51.488;6.668;2022-12-05T04:16:42;25.98;;;18.15;;
22070;SDS011;11200;51.488;6.668;2022-12-05T04:23:01;24.05;;;17.05;;
22070;SDS011;11200;51.488;6.668;2022-12-05T04:25:28;23.73;;;17.27;;
22070;SDS011;11200;51.488;6.668;2022-12-05T04:28:16;25.27;;;17.45;;
22070;SDS011;11200;51.488;6.668;2022-12-05T04:31:09;25.45;;;17.50;;
22070;SDS011;11200;51.488;6.668;2022-12-05T04:41:23;23.65;;;17.27;;
22070;SDS011;11200;51.488;6.668;2022-12-05T04:44:00;21.88;;;16.42;;
22070;SDS011;11200;51.488;6.668;2022-12-05T04:46:37;23.38;;;17.25;;
22070;SDS011;11200;51.488;6.668;2022-12-05T04:49:06;22.52;;;16.60;;
22070;SDS011;11200;51.488;6.668;2022-12-05T04:51:35;23.65;;;16.88;;
22070;SDS011;11200;51.488;6.668;2022-12-05T04:54:09;24.08;;;17.08;;
22070;SDS011;11200;51.488;6.668;2022-12-05T04:56:53;21.40;;;16.15;;
22070;SDS011;11200;51.488;6.668;2022-12-05T04:59:34;23.27;;;17.02;;
22070;SDS011;11200;51.488;6.668;2022-12-05T05:02:06;23.02;;;16.05;;
22070;SDS011;11200;51.488;6.668;2022-12-05T05:04:34;23.73;;;16.05;;
22070;SDS011;11200;51.488;6.668;2022-12-05T05:07:07;20.73;;;15.98;;
22070;SDS011;11200;51.488;6.668;2022-12-05T05:09:34;21.52;;;16.00;;
22070;SDS011;11200;51.488;6.668;2022-12-05T05:12:00;23.10;;;16.63;;
22070;SDS011;11200;51.488;6.668;2022-12-05T05:14:28;22.33;;;16.17;;
22070;SDS011;11200;51.488;6.668;2022-12-05T05:16:54;22.30;;;16.17;;
22070;SDS011;11200;51.488;6.668;2022-12-05T05:19:23;21.40;;;15.05;;
22070;SDS011;11200;51.488;6.668;2022-12-05T05:21:49;21.23;;;15.68;;
22070;SDS011;11200;51.488;6.668;2022-12-05T05:24:16;20.75;;;15.55;;
22070;SDS011;11200;51.488;6.668;2022-12-05T05:26:43;21.73;;;16.23;;
22070;SDS011;11200;51.488;6.668;2022-12-05T05:29:13;21.50;;;15.88;;
22070;SDS011;11200;51.488;6.668;2022-12-05T05:31:43;22.67;;;16.60;;
22070;SDS011;11200;51.488;6.668;2022-12-05T05:34:19;20.63;;;15.65;;
22070;SDS011;11200;51.488;6.668;2022-12-05T05:44:28;20.33;;;15.05;;
22070;SDS011;11200;51.488;6.668;2022-12-05T05:50:32;21.70;;;14.80;;
22070;SDS011;11200;51.488;6.668;2022-12-05T05:53:01;20.77;;;15.93;;
22070;SDS011;11200;51.488;6.668;2022-12-05T05:56:02;20.70;;;15.45;;
22070;SDS011;11200;51.488;6.668;2022-12-05T05:58:33;21.13;;;15.63;;
22070;SDS011;11200;51.488;6.668;2022-12-05T06:01:15;20.33;;;14.63;;
22070;SDS011;11200;51.488;6.668;2022-12-05T06:03:54;20.15;;;15.27;;
22070;SDS011;11200;51.488;6.668;2022-12-05T06:06:20;20.50;;;15.52;;
22070;SDS011;11200;51.488;6.668;2022-12-05T06:08:46;19.00;;;14.50;;
22070;SDS011;11200;51.488;6.668;2022-12-05T06:11:20;22.02;;;16.10;;
22070;SDS011;11200;51.488;6.668;2022-12-05T06:13:49;19.60;;;14.88;;
22070;SDS011;11200;51.488;6.668;2022-12-05T06:16:17;19.33;;;14.27;;
22070;SDS011;11200;51.488;6.668;2022-12-05T06:18:45;20.10;;;14.93;;
22070;SDS011;11200;51.488;6.668;2022-12-05T06:21:11;19.05;;;14.13;;
22070;SDS011;11200;51.488;6.668;2022-12-05T06:23:38;20.48;;;14.68;;
22070;SDS011;11200;51.488;6.668;2022-12-05T06:26:09;20.98;;;14.75;;
22070;SDS011;11200;51.488;6.668;2022-12-05T06:28:38;19.63;;;14.82;;
22070;SDS011;11200;51.488;6.668;2022-12-05T06:31:11;18.27;;;14.52;;
22070;SDS011;11200;51.488;6.668;2022-12-05T06:33:42;18.75;;;14.30;;
22070;SDS011;11200;51.488;6.668;2022-12-05T06:36:11;19.15;;;14.63;;
22070;SDS011;11200;51.488;6.668;2022-12-05T06:38:39;19.08;;;14.52;;
22070;SDS011;11200;51.488;6.668;2022-12-05T06:41:06;19.63;;;14.75;;
22070;SDS011;11200;51.488;6.668;2022-12-05T06:43:32;20.08;;;14.65;;
22070;SDS011;11200;51.488;6.668;2022-12-05T06:45:59;18.98;;;14.27;;
22070;SDS011;11200;51.488;6.668;2022-12-05T06:48:30;18.67;;;14.25;;
22070;SDS011;11200;51.488;6.668;2022-12-05T06:50:57;19.17;;;14.43;;
22070;SDS011;11200;51.488;6.668;2022-12-05T06:53:23;17.60;;;13.38;;
22070;SDS011;11200;51.488;6.668;2022-12-05T06:55:59;18.90;;;14.15;;
22070;SDS011;11200;51.488;6.668;2022-12-05T06:58:29;17.90;;;13.43;;
22070;SDS011;11200;51.488;6.668;2022-12-05T07:00:56;17.80;;;14.00;;
22070;SDS011;11200;51.488;6.668;2022-12-05T07:03:40;17.17;;;13.07;;
22070;SDS011;11200;51.488;6.668;2022-12-05T07:06:11;18.85;;;13.93;;
22070;SDS011;11200;51.488;6.668;2022-12-05T07:08:37;17.13;;;13.52;;
22070;SDS011;11200;51.488;6.668;2022-12-05T07:11:06;17.88;;;14.15;;
22070;SDS011;11200;51.488;6.668;2022-12-05T07:13:33;18.35;;;13.32;;
22070;SDS011;11200;51.488;6.668;2022-12-05T07:15:58;17.20;;;12.93;;
22070;SDS011;11200;51.488;6.668;2022-12-05T07:18:25;17.23;;;13.32;;
22070;SDS011;11200;51.488;6.668;2022-12-05T07:21:01;17.65;;;13.38;;
22070;SDS011;11200;51.488;6.668;2022-12-05T07:23:30;18.92;;;13.93;;
22070;SDS011;11200;51.488;6.668;2022-12-05T07:25:57;15.98;;;12.90;;
22070;SDS011;11200;51.488;6.668;2022-12-05T07:28:24;16.80;;;12.90;;
22070;SDS011;11200;51.488;6.668;2022-12-05T07:31:06;15.82;;;12.30;;
22070;SDS011;11200;51.488;6.668;2022-12-05T07:33:38;18.75;;;13.52;;
22070;SDS011;11200;51.488;6.668;2022-12-05T07:36:05;18.02;;;13.70;;
22070;SDS011;11200;51.488;6.668;2022-12-05T07:38:39;18.20;;;13.77;;
22070;SDS011;11200;51.488;6.668;2022-12-05T07:41:08;16.40;;;12.10;;
22070;SDS011;11200;51.488;6.668;2022-12-05T07:43:35;15.90;;;12.27;;
22070;SDS011;11200;51.488;6.668;2022-12-05T07:46:04;17.05;;;13.15;;
22070;SDS011;11200;51.488;6.668;2022-12-05T07:48:30;15.73;;;12.13;;
22070;SDS011;11200;51.488;6.668;2022-12-05T07:51:00;15.27;;;12.40;;
22070;SDS011;11200;51.488;6.668;2022-12-05T07:53:26;16.70;;;12.27;;
22070;SDS011;11200;51.488;6.668;2022-12-05T07:55:52;16.17;;;12.75;;
22070;SDS011;11200;51.488;6.668;2022-12-05T07:58:18;16.50;;;12.18;;
22070;SDS011;11200;51.488;6.668;2022-12-05T08:00:43;16.67;;;12.38;;
22070;SDS011;11200;51.488;6.668;2022-12-05T08:03:09;16.77;;;12.45;;
22070;SDS011;11200;51.488;6.668;2022-12-05T08:05:34;15.45;;;11.65;;
22070;SDS011;11200;51.488;6.668;2022-12-05T08:08:01;14.63;;;11.82;;
22070;SDS011;11200;51.488;6.668;2022-12-05T08:10:27;16.63;;;11.75;;
22070;SDS011;11200;51.488;6.668;2022-12-05T08:12:52;15.73;;;12.25;;
22070;SDS011;11200;51.488;6.668;2022-12-05T08:15:18;16.38;;;12.00;;
22070;SDS011;11200;51.488;6.668;2022-12-05T08:17:43;15.27;;;11.43;;
22070;SDS011;11200;51.488;6.668;2022-12-05T08:20:09;15.10;;;11.75;;
22070;SDS011;11200;51.488;6.668;2022-12-05T08:22:35;16.08;;;12.38;;
22070;SDS011;11200;51.488;6.668;2022-12-05T08:25:00;14.93;;;11.93;;
22070;SDS011;11200;51.488;6.668;2022-12-05T08:27:26;15.43;;;11.88;;
22070;SDS011;11200;51.488;6.668;2022-12-05T08:29:52;16.40;;;11.93;;
22070;SDS011;11200;51.488;6.668;2022-12-05T08:32:18;15.55;;;12.20;;
22070;SDS011;11200;51.488;6.668;2022-12-05T08:34:44;15.27;;;11.48;;
22070;SDS011;11200;51.488;6.668;2022-12-05T08:37:09;16.30;;;11.48;;
22070;SDS011;11200;51.488;6.668;2022-12-05T08:39:35;14.77;;;11.77;;
22070;SDS011;11200;51.488;6.668;2022-12-05T08:42:01;14.02;;;11.18;;
22070;SDS011;11200;51.488;6.668;2022-12-05T08:44:26;15.13;;;11.45;;
22070;SDS011;11200;51.488;6.668;2022-12-05T08:46:52;13.90;;;11.02;;
22070;SDS011;11200;51.488;6.668;2022-12-05T08:49:18;14.63;;;11.55;;
22070;SDS011;11200;51.488;6.668;2022-12-05T08:51:43;13.63;;;10.52;;
22070;SDS011;11200;51.488;6.668;2022-12-05T08:54:09;13.52;;;10.77;;
22070;SDS011;11200;51.488;6.668;2022-12-05T08:56:35;14.77;;;11.68;;
22070;SDS011;11200;51.488;6.668;2022-12-05T08:59:02;12.75;;;10.57;;
22070;SDS011;11200;51.488;6.668;2022-12-05T09:01:29;14.77;;;11.65;;
22070;SDS011;11200;51.488;6.668;2022-12-05T09:03:56;13.95;;;11.23;;
22070;SDS011;11200;51.488;6.668;2022-12-05T09:06:24;13.75;;;11.15;;
22070;SDS011;11200;51.488;6.668;2022-12-05T09:08:54;14.57;;;11.20;;
22070;SDS011;11200;51.488;6.668;2022-12-05T09:11:22;13.70;;;10.32;;
22070;SDS011;11200;51.488;6.668;2022-12-05T09:13:50;16.60;;;11.93;;
22070;SDS011;11200;51.488;6.668;2022-12-05T09:16:18;14.07;;;10.38;;
22070;SDS011;11200;51.488;6.668;2022-12-05T09:18:49;14.60;;;11.30;;
22070;SDS011;11200;51.488;6.668;2022-12-05T09:21:16;13.88;;;10.80;;
22070;SDS011;11200;51.488;6.668;2022-12-05T09:23:44;12.63;;;9.95;;
22070;SDS011;11200;51.488;6.668;2022-12-05T09:26:10;12.95;;;10.15;;
22070;SDS011;11200;51.488;6.668;2022-12-05T09:28:38;14.63;;;10.75;;
22070;SDS011;11200;51.488;6.668;2022-12-05T09:31:05;12.70;;;10.32;;
22070;SDS011;11200;51.488;6.668;2022-12-05T09:33:33;14.00;;;11.10;;
22070;SDS011;11200;51.488;6.668;2022-12-05T09:36:02;11.88;;;10.05;;
22070;SDS011;11200;51.488;6.668;2022-12-05T09:38:28;12.85;;;10.25;;
22070;SDS011;11200;51.488;6.668;2022-12-05T09:41:10;14.13;;;10.82;;
22070;SDS011;11200;51.488;6.668;2022-12-05T09:43:48;14.27;;;10.60;;
22070;SDS011;11200;51.488;6.668;2022-12-05T09:46:29;11.65;;;9.80;;
22070;SDS011;11200;51.488;6.668;2022-12-05T09:49:07;12.88;;;10.25;;
22070;SDS011;11200;51.488;6.668;2022-12-05T09:51:34;12.85;;;10.25;;
22070;SDS011;11200;51.488;6.668;2022-12-05T09:54:04;14.07;;;10.00;;
22070;SDS011;11200;51.488;6.668;2022-12-05T09:56:31;12.10;;;10.10;;
22070;SDS011;11200;51.488;6.668;2022-12-05T09:58:57;13.55;;;10.32;;
22070;SDS011;11200;51.488;6.668;2022-12-05T10:09:59;13.27;;;10.55;;
22070;SDS011;11200;51.488;6.668;2022-12-05T10:15:41;13.38;;;10.77;;
22070;SDS011;11200;51.488;6.668;2022-12-05T10:21:24;11.30;;;9.30;;
22070;SDS011;11200;51.488;6.668;2022-12-05T10:23:52;12.93;;;10.25;;
22070;SDS011;11200;51.488;6.668;2022-12-05T10:26:21;13.18;;;10.18;;
22070;SDS011;11200;51.488;6.668;2022-12-05T10:28:58;12.30;;;9.88;;
22070;SDS011;11200;51.488;6.668;2022-12-05T10:31:46;12.27;;;9.88;;
22070;SDS011;11200;51.488;6.668;2022-12-05T10:34:30;11.38;;;9.60;;
22070;SDS011;11200;51.488;6.668;2022-12-05T10:37:17;11.93;;;9.80;;
22070;SDS011;11200;51.488;6.668;2022-12-05T10:39:45;10.55;;;9.27;;
22070;SDS011;11200;51.488;6.668;2022-12-05T10:42:16;11.70;;;9.40;;
22070;SDS011;11200;51.488;6.668;2022-12-05T10:44:55;12.32;;;9.70;;
22070;SDS011;11200;51.488;6.668;2022-12-05T10:47:23;10.48;;;9.00;;
22070;SDS011;11200;51.488;6.668;2022-12-05T10:49:49;10.48;;;9.02;;
22070;SDS011;11200;51.488;6.668;2022-12-05T10:52:15;11.65;;;9.45;;
22070;SDS011;11200;51.488;6.668;2022-12-05T10:54:53;12.60;;;9.63;;
22070;SDS011;11200;51.488;6.668;2022-12-05T10:57:23;11.02;;;9.52;;
22070;SDS011;11200;51.488;6.668;2022-12-05T10:59:51;10.85;;;9.07;;
22070;SDS011;11200;51.488;6.668;2022-12-05T11:02:28;10.70;;;9.40;;
22070;SDS011;11200;51.488;6.668;2022-12-05T11:04:56;10.50;;;9.07;;
22070;SDS011;11200;51.488;6.668;2022-12-05T11:09:55;12.13;;;9.23;;
22070;SDS011;11200;51.488;6.668;2022-12-05T11:12:42;11.02;;;9.05;;
22070;SDS011;11200;51.488;6.668;2022-12-05T11:17:43;12.23;;;9.02;;
22070;SDS011;11200;51.488;6.668;2022-12-05T11:22:42;10.10;;;8.88;;
22070;SDS011;11200;51.488;6.668;2022-12-05T11:27:52;11.63;;;9.18;;
22070;SDS011;11200;51.488;6.668;2022-12-05T11:30:23;10.93;;;9.23;;
22070;SDS011;11200;51.488;6.668;2022-12-05T11:33:09;11.02;;;8.70;;
22070;SDS011;11200;51.488;6.668;2022-12-05T11:35:41;9.80;;;8.57;;
22070;SDS011;11200;51.488;6.668;2022-12-05T11:38:08;10.23;;;9.13;;
22070;SDS011;11200;51.488;6.668;2022-12-05T11:40:37;9.93;;;8.65;;
22070;SDS011;11200;51.488;6.668;2022-12-05T11:54:38;9.95;;;8.57;;
22070;SDS011;11200;51.488;6.668;2022-12-05T12:10:41;9.93;;;8.15;;
22070;SDS011;11200;51.488;6.668;2022-12-05T12:13:40;9.75;;;8.02;;
22070;SDS011;11200;51.488;6.668;2022-12-05T12:34:12;8.98;;;7.70;;
22070;SDS011;11200;51.488;6.668;2022-12-05T12:36:45;9.20;;;7.82;;
22070;SDS011;11200;51.488;6.668;2022-12-05T12:50:27;8.30;;;7.43;;
22070;SDS011;11200;51.488;6.668;2022-12-05T12:53:07;8.82;;;7.45;;
22070;SDS011;11200;51.488;6.668;2022-12-05T12:55:46;9.40;;;7.95;;
22070;SDS011;11200;51.488;6.668;2022-12-05T13:09:35;8.75;;;7.43;;
22070;SDS011;11200;51.488;6.668;2022-12-05T13:12:15;9.05;;;7.53;;
22070;SDS011;11200;51.488;6.668;2022-12-05T13:14:53;8.05;;;7.25;;
22070;SDS011;11200;51.488;6.668;2022-12-05T13:17:24;9.10;;;7.55;;
22070;SDS011;11200;51.488;6.668;2022-12-05T13:19:51;8.70;;;7.68;;
22070;SDS011;11200;51.488;6.668;2022-12-05T13:22:19;8.60;;;7.50;;
22070;SDS011;11200;51.488;6.668;2022-12-05T13:24:46;8.70;;;7.43;;
22070;SDS011;11200;51.488;6.668;2022-12-05T13:27:15;8.15;;;7.32;;
22070;SDS011;11200;51.488;6.668;2022-12-05T13:29:54;8.65;;;7.50;;
22070;SDS011;11200;51.488;6.668;2022-12-05T13:32:32;8.50;;;7.53;;
22070;SDS011;11200;51.488;6.668;2022-12-05T13:37:31;7.63;;;6.68;;
22070;SDS011;11200;51.488;6.668;2022-12-05T13:40:21;8.57;;;7.35;;
22070;SDS011;11200;51.488;6.668;2022-12-05T13:43:12;7.93;;;7.13;;
22070;SDS011;11200;51.488;6.668;2022-12-05T13:45:52;9.07;;;7.63;;
22070;SDS011;11200;51.488;6.668;2022-12-05T13:48:31;8.50;;;7.50;;
22070;SDS011;11200;51.488;6.668;2022-12-05T13:53:33;8.23;;;7.35;;
22070;SDS011;11200;51.488;6.668;2022-12-05T14:09:03;8.25;;;7.40;;
22070;SDS011;11200;51.488;6.668;2022-12-05T14:11:29;7.28;;;6.47;;
22070;SDS011;11200;51.488;6.668;2022-12-05T14:13:54;7.57;;;6.78;;
22070;SDS011;11200;51.488;6.668;2022-12-05T14:21:41;7.72;;;6.93;;
22070;SDS011;11200;51.488;6.668;2022-12-05T14:24:30;7.20;;;6.32;;
22070;SDS011;11200;51.488;6.668;2022-12-05T14:32:29;8.07;;;6.95;;
22070;SDS011;11200;51.488;6.668;2022-12-05T14:37:26;7.15;;;6.45;;
22070;SDS011;11200;51.488;6.668;2022-12-05T14:39:58;7.65;;;6.72;;
22070;SDS011;11200;51.488;6.668;2022-12-05T14:42:41;7.80;;;6.90;;
22070;SDS011;11200;51.488;6.668;2022-12-05T14:47:51;7.72;;;6.93;;
22070;SDS011;11200;51.488;6.668;2022-12-05T14:50:42;7.80;;;6.70;;
22070;SDS011;11200;51.488;6.668;2022-12-05T14:56:28;7.65;;;6.65;;
22070;SDS011;11200;51.488;6.668;2022-12-05T14:58:51;7.10;;;6.40;;
22070;SDS011;11200;51.488;6.668;2022-12-05T15:01:22;6.97;;;6.32;;
22070;SDS011;11200;51.488;6.668;2022-12-05T15:03:59;7.07;;;6.38;;
22070;SDS011;11200;51.488;6.668;2022-12-05T15:07:24;7.13;;;6.43;;
22070;SDS011;11200;51.488;6.668;2022-12-05T15:10:15;7.57;;;6.80;;
22070;SDS011;11200;51.488;6.668;2022-12-05T15:16:14;7.38;;;6.65;;
22070;SDS011;11200;51.488;6.668;2022-12-05T15:18:48;7.85;;;7.00;;
22070;SDS011;11200;51.488;6.668;2022-12-05T15:21:30;7.30;;;6.60;;
22070;SDS011;11200;51.488;6.668;2022-12-05T15:24:10;6.85;;;6.15;;
22070;SDS011;11200;51.488;6.668;2022-12-05T15:26:48;7.05;;;6.35;;
22070;SDS011;11200;51.488;6.668;2022-12-05T15:31:54;6.45;;;5.85;;
22070;SDS011;11200;51.488;6.668;2022-12-05T15:39:53;7.63;;;6.82;;
22070;SDS011;11200;51.488;6.668;2022-12-05T15:42:20;6.95;;;6.30;;
22070;SDS011;11200;51.488;6.668;2022-12-05T15:44:49;7.68;;;6.53;;
22070;SDS011;11200;51.488;6.668;2022-12-05T15:47:19;7.78;;;6.25;;
22070;SDS011;11200;51.488;6.668;2022-12-05T15:49:49;7.57;;;6.45;;
22070;SDS011;11200;51.488;6.668;2022-12-05T15:55:02;7.43;;;6.45;;
22070;SDS011;11200;51.488;6.668;2022-12-05T15:57:36;9.13;;;6.45;;
22070;SDS011;11200;51.488;6.668;2022-12-05T16:00:31;7.85;;;6.85;;
22070;SDS011;11200;51.488;6.668;2022-12-05T16:03:04;7.90;;;7.10;;
22070;SDS011;11200;51.488;6.668;2022-12-05T16:08:15;7.20;;;6.50;;
22070;SDS011;11200;51.488;6.668;2022-12-05T16:10:41;8.02;;;7.03;;
22070;SDS011;11200;51.488;6.668;2022-12-05T16:13:10;7.50;;;6.68;;
22070;SDS011;11200;51.488;6.668;2022-12-05T16:15:40;8.80;;;7.30;;
22070;SDS011;11200;51.488;6.668;2022-12-05T16:18:18;8.15;;;6.95;;
22070;SDS011;11200;51.488;6.668;2022-12-05T16:20:50;7.90;;;6.88;;
22070;SDS011;11200;51.488;6.668;2022-12-05T16:23:24;8.77;;;7.30;;
22070;SDS011;11200;51.488;6.668;2022-12-05T16:28:37;7.18;;;6.47;;
22070;SDS011;11200;51.488;6.668;2022-12-05T16:31:03;7.60;;;6.82;;
22070;SDS011;11200;51.488;6.668;2022-12-05T16:33:30;7.82;;;7.00;;
22070;SDS011;11200;51.488;6.668;2022-12-05T16:36:09;7.30;;;6.53;;
22070;SDS011;11200;51.488;6.668;2022-12-05T16:38:36;8.35;;;7.18;;
22070;SDS011;11200;51.488;6.668;2022-12-05T16:41:04;8.90;;;6.90;;
22070;SDS011;11200;51.488;6.668;2022-12-05T16:48:45;7.40;;;6.70;;
22070;SDS011;11200;51.488;6.668;2022-12-05T16:51:38;8.35;;;7.15;;
22070;SDS011;11200;51.488;6.668;2022-12-05T16:54:06;7.65;;;6.85;;
22070;SDS011;11200;51.488;6.668;2022-12-05T16:56:32;7.63;;;6.30;;
22070;SDS011;11200;51.488;6.668;2022-12-05T16:59:02;7.50;;;6.80;;
22070;SDS011;11200;51.488;6.668;2022-12-05T17:01:29;7.90;;;7.10;;
22070;SDS011;11200;51.488;6.668;2022-12-05T17:03:57;7.70;;;6.47;;
22070;SDS011;11200;51.488;6.668;2022-12-05T17:06:24;7.68;;;6.88;;
22070;SDS011;11200;51.488;6.668;2022-12-05T17:08:50;7.85;;;7.03;;
22070;SDS011;11200;51.488;6.668;2022-12-05T17:11:22;7.32;;;6.63;;
22070;SDS011;11200;51.488;6.668;2022-12-05T17:13:50;7.95;;;6.72;;
22070;SDS011;11200;51.488;6.668;2022-12-05T17:16:20;7.05;;;6.35;;
22070;SDS011;11200;51.488;6.668;2022-12-05T17:18:51;7.43;;;6.60;;
22070;SDS011;11200;51.488;6.668;2022-12-05T17:21:20;7.10;;;6.40;;
22070;SDS011;11200;51.488;6.668;2022-12-05T17:23:51;7.18;;;6.47;;
22070;SDS011;11200;51.488;6.668;2022-12-05T17:29:23;8.27;;;6.47;;
22070;SDS011;11200;51.488;6.668;2022-12-05T18:39:04;6.78;;;6.07;;
22070;SDS011;11200;51.488;6.668;2022-12-05T18:41:32;7.85;;;7.05;;
22070;SDS011;11200;51.488;6.668;2022-12-05T18:44:07;7.22;;;6.53;;
22070;SDS011;11200;51.488;6.668;2022-12-05T18:46:34;8.27;;;7.32;;
22070;SDS011;11200;51.488;6.668;2022-12-05T18:49:01;7.40;;;6.38;;
22070;SDS011;11200;51.488;6.668;2022-12-05T18:51:27;7.82;;;6.97;;
22070;SDS011;11200;51.488;6.668;2022-12-05T18:53:53;8.00;;;7.20;;
22070;SDS011;11200;51.488;6.668;2022-12-05T18:56:24;8.10;;;7.07;;
22070;SDS011;11200;51.488;6.668;2022-12-05T18:58:52;7.35;;;6.65;;
22070;SDS011;11200;51.488;6.668;2022-12-05T19:01:19;7.78;;;6.85;;
22070;SDS011;11200;51.488;6.668;2022-12-05T19:03:45;7.63;;;6.55;;
22070;SDS011;11200;51.488;6.668;2022-12-05T19:08:37;8.05;;;7.10;;
22070;SDS011;11200;51.488;6.668;2022-12-05T19:11:03;7.43;;;6.70;;
22070;SDS011;11200;51.488;6.668;2022-12-05T19:13:29;6.95;;;6.25;;
22070;SDS011;11200;51.488;6.668;2022-12-05T19:16:02;7.72;;;6.72;;
22070;SDS011;11200;51.488;6.668;2022-12-05T19:18:29;6.85;;;6.15;;
22070;SDS011;11200;51.488;6.668;2022-12-05T19:20:55;7.45;;;6.75;;
22070;SDS011;11200;51.488;6.668;2022-12-05T19:23:21;6.72;;;5.97;;
22070;SDS011;11200;51.488;6.668;2022-12-05T19:25:46;7.65;;;6.85;;
22070;SDS011;11200;51.488;6.668;2022-12-05T19:28:12;7.22;;;6.50;;
22070;SDS011;11200;51.488;6.668;2022-12-05T19:30:38;7.20;;;6.50;;
22070;SDS011;11200;51.488;6.668;2022-12-05T19:33:03;7.63;;;6.70;;
22070;SDS011;11200;51.488;6.668;2022-12-05T19:35:33;7.55;;;6.75;;
22070;SDS011;11200;51.488;6.668;2022-12-05T19:38:00;7.18;;;6.47;;